createdAt,value
2023-03-27T00:01:18.259Z,9.64
2023-03-27T00:03:49.352Z,9.64
2023-03-27T00:06:17.513Z,9.65
2023-03-27T00:08:51.483Z,9.63
2023-03-27T00:11:21.901Z,9.57
2023-03-27T00:13:51.425Z,9.59
2023-03-27T00:16:23.993Z,9.61
2023-03-27T00:18:51.349Z,9.64
2023-03-27T00:21:17.913Z,9.65
2023-03-27T00:23:44.515Z,9.64
2023-03-27T00:26:12.128Z,9.61
2023-03-27T00:28:39.294Z,9.57
2023-03-27T00:31:11.661Z,9.50
2023-03-27T00:33:38.577Z,9.44
2023-03-27T00:36:06.237Z,9.46
2023-03-27T00:38:33.943Z,9.50
2023-03-27T00:41:01.267Z,9.51
2023-03-27T00:43:36.296Z,9.50
2023-03-27T00:46:08.051Z,9.50
2023-03-27T00:48:37.721Z,9.50
2023-03-27T00:51:06.011Z,9.48
2023-03-27T00:53:33.595Z,9.47
2023-03-27T00:56:03.754Z,9.48
2023-03-27T00:58:37.327Z,9.47
2023-03-27T01:01:04.004Z,9.48
2023-03-27T01:03:32.890Z,9.48
2023-03-27T01:06:03.776Z,9.46
2023-03-27T01:08:33.854Z,9.48
2023-03-27T01:11:23.828Z,9.48
2023-03-27T01:14:15.679Z,9.48
2023-03-27T01:17:13.050Z,9.48
2023-03-27T01:20:07.196Z,9.42
2023-03-27T01:23:02.659Z,9.38
2023-03-27T01:25:50.274Z,9.36
2023-03-27T01:28:23.873Z,9.32
2023-03-27T01:30:56.449Z,9.24
2023-03-27T01:33:35.008Z,9.22
2023-03-27T01:36:25.033Z,9.20
2023-03-27T01:39:11.065Z,9.20
2023-03-27T01:42:06.292Z,9.20
2023-03-27T01:44:43.203Z,9.21
2023-03-27T01:47:51.187Z,9.13
2023-03-27T01:50:23.852Z,9.04
2023-03-27T01:52:56.334Z,8.98
2023-03-27T01:55:28.127Z,8.97
2023-03-27T01:58:03.202Z,8.94
2023-03-27T02:00:51.936Z,8.92
2023-03-27T02:03:22.714Z,8.89
2023-03-27T02:06:00.633Z,8.89
2023-03-27T02:08:40.534Z,8.85
2023-03-27T02:11:07.761Z,8.84
2023-03-27T02:13:39.788Z,8.86
2023-03-27T02:16:10.835Z,8.88
2023-03-27T02:18:47.592Z,8.89
2023-03-27T02:21:15.324Z,8.88
2023-03-27T02:23:42.137Z,8.89
2023-03-27T02:26:13.139Z,8.92
2023-03-27T02:29:01.615Z,8.93
2023-03-27T02:31:40.424Z,8.93
2023-03-27T02:34:21.974Z,8.91
2023-03-27T02:36:57.654Z,8.89
2023-03-27T02:39:38.199Z,8.86
2023-03-27T02:42:13.416Z,8.84
2023-03-27T02:45:08.304Z,8.86
2023-03-27T02:47:43.928Z,8.84
2023-03-27T02:50:21.896Z,8.80
2023-03-27T02:52:53.540Z,8.79
2023-03-27T02:55:33.258Z,8.79
2023-03-27T02:58:19.792Z,8.80
2023-03-27T03:00:50.408Z,8.83
2023-03-27T03:03:28.062Z,8.84
2023-03-27T03:05:56.645Z,8.84
2023-03-27T03:08:24.176Z,8.82
2023-03-27T03:10:50.858Z,8.80
2023-03-27T03:13:18.139Z,8.73
2023-03-27T03:15:49.542Z,8.73
2023-03-27T03:18:17.118Z,8.72
2023-03-27T03:20:44.480Z,8.68
2023-03-27T03:23:11.124Z,8.61
2023-03-27T03:25:37.700Z,8.57
2023-03-27T03:28:08.146Z,8.55
2023-03-27T03:30:34.806Z,8.52
2023-03-27T03:33:01.409Z,8.51
2023-03-27T03:35:28.251Z,8.51
2023-03-27T03:37:54.842Z,8.54
2023-03-27T03:40:21.506Z,8.52
2023-03-27T03:42:52.607Z,8.53
2023-03-27T03:45:19.913Z,8.54
2023-03-27T03:47:46.772Z,8.58
2023-03-27T03:50:14.189Z,8.58
2023-03-27T03:52:41.757Z,8.58
2023-03-27T03:55:11.917Z,8.58
2023-03-27T03:57:38.547Z,8.61
2023-03-27T04:00:11.558Z,8.59
2023-03-27T04:02:40.692Z,8.61
2023-03-27T04:05:09.075Z,8.61
2023-03-27T04:07:36.484Z,8.60
2023-03-27T04:10:04.002Z,8.61
2023-03-27T04:12:30.604Z,8.61
2023-03-27T04:14:57.355Z,8.59
2023-03-27T04:17:26.293Z,8.60
2023-03-27T04:19:57.287Z,8.58
2023-03-27T04:22:24.085Z,8.58
2023-03-27T04:24:50.834Z,8.54
2023-03-27T04:27:18.825Z,8.53
2023-03-27T04:29:47.339Z,8.50
2023-03-27T04:32:19.244Z,8.50
2023-03-27T04:34:48.250Z,8.48
2023-03-27T04:37:15.245Z,8.47
2023-03-27T04:39:46.472Z,8.45
2023-03-27T04:42:16.450Z,8.44
2023-03-27T04:44:46.502Z,8.43
2023-03-27T04:47:13.290Z,8.45
2023-03-27T04:49:46.708Z,8.44
2023-03-27T04:52:16.459Z,8.45
2023-03-27T04:54:43.871Z,8.45
2023-03-27T04:57:11.309Z,8.45
2023-03-27T04:59:37.905Z,8.43
2023-03-27T05:02:06.493Z,8.42
2023-03-27T05:04:33.625Z,8.42
2023-03-27T05:07:00.776Z,8.44
2023-03-27T05:09:27.505Z,8.42
2023-03-27T05:11:54.360Z,8.43
2023-03-27T05:14:23.478Z,8.42
2023-03-27T05:16:52.303Z,8.41
2023-03-27T05:19:20.173Z,8.41
2023-03-27T05:21:47.514Z,8.41
2023-03-27T05:24:15.531Z,8.41
2023-03-27T05:26:43.297Z,8.41
2023-03-27T05:29:10.252Z,8.42
2023-03-27T05:31:37.422Z,8.42
2023-03-27T05:34:04.270Z,8.40
2023-03-27T05:36:30.834Z,8.39
2023-03-27T05:38:58.092Z,8.39
2023-03-27T05:41:25.043Z,8.40
2023-03-27T05:43:51.803Z,8.39
2023-03-27T05:46:20.751Z,8.39
2023-03-27T05:48:48.500Z,8.38
2023-03-27T05:51:15.963Z,8.37
2023-03-27T05:53:43.056Z,8.35
2023-03-27T05:56:10.530Z,8.33
2023-03-27T05:58:37.520Z,8.36
2023-03-27T06:01:04.804Z,8.36
2023-03-27T06:03:31.551Z,8.37
2023-03-27T06:06:01.020Z,8.35
2023-03-27T06:08:29.475Z,8.32
2023-03-27T06:10:56.234Z,8.33
2023-03-27T06:13:24.161Z,8.32
2023-03-27T06:15:54.087Z,8.32
2023-03-27T06:18:21.033Z,8.32
2023-03-27T06:20:47.623Z,8.31
2023-03-27T06:23:14.489Z,8.29
2023-03-27T06:25:41.373Z,8.28
2023-03-27T06:28:09.333Z,8.25
2023-03-27T06:30:38.321Z,8.23
2023-03-27T06:33:06.198Z,8.23
2023-03-27T06:35:34.107Z,8.23
2023-03-27T06:38:02.758Z,8.22
2023-03-27T06:40:31.468Z,8.24
2023-03-27T06:43:09.018Z,8.25
2023-03-27T06:45:42.998Z,8.26
2023-03-27T06:48:13.603Z,8.28
2023-03-27T06:50:45.224Z,8.27
2023-03-27T06:53:25.779Z,8.26
2023-03-27T06:55:53.696Z,8.25
2023-03-27T06:58:20.502Z,8.22
2023-03-27T07:00:49.852Z,8.25
2023-03-27T07:03:17.974Z,8.25
2023-03-27T07:05:45.198Z,8.25
2023-03-27T07:08:23.399Z,8.26
2023-03-27T07:11:09.805Z,8.27
2023-03-27T07:13:38.086Z,8.27
2023-03-27T07:16:05.390Z,8.27
2023-03-27T07:18:32.221Z,8.32
2023-03-27T07:20:59.267Z,8.30
2023-03-27T07:23:26.670Z,8.31
2023-03-27T07:26:00.576Z,8.32
2023-03-27T07:28:27.804Z,8.32
2023-03-27T07:30:54.408Z,8.37
2023-03-27T07:33:21.184Z,8.40
2023-03-27T07:35:48.605Z,8.41
2023-03-27T07:38:16.628Z,8.44
2023-03-27T07:40:46.096Z,8.45
2023-03-27T07:43:13.448Z,8.44
2023-03-27T07:45:41.275Z,8.46
2023-03-27T07:48:10.371Z,8.48
2023-03-27T07:50:37.750Z,8.51
2023-03-27T07:53:06.495Z,8.52
2023-03-27T07:55:33.703Z,8.55
2023-03-27T07:58:02.889Z,8.56
2023-03-27T08:00:31.346Z,8.55
2023-03-27T08:03:10.030Z,8.56
2023-03-27T08:05:37.923Z,8.59
2023-03-27T08:08:05.062Z,8.59
2023-03-27T08:10:31.876Z,8.58
2023-03-27T08:12:58.419Z,8.57
2023-03-27T08:15:25.532Z,8.56
2023-03-27T08:17:54.860Z,8.54
2023-03-27T08:20:23.901Z,8.53
2023-03-27T08:22:52.589Z,8.50
2023-03-27T08:25:22.361Z,8.45
2023-03-27T08:27:49.349Z,8.41
2023-03-27T08:30:17.200Z,8.39
2023-03-27T08:32:44.271Z,8.38
2023-03-27T08:35:10.922Z,8.38
2023-03-27T08:37:37.727Z,8.36
2023-03-27T08:40:11.060Z,8.36
2023-03-27T08:42:42.291Z,8.36
2023-03-27T08:45:18.882Z,8.39
2023-03-27T08:47:56.606Z,8.42
2023-03-27T08:50:46.553Z,8.42
2023-03-27T08:53:34.248Z,8.44
2023-03-27T08:56:01.304Z,8.45
2023-03-27T08:58:27.895Z,8.48
2023-03-27T09:01:07.024Z,8.50
2023-03-27T09:03:45.171Z,8.52
2023-03-27T09:06:34.203Z,8.53
2023-03-27T09:09:15.295Z,8.54
2023-03-27T09:11:54.934Z,8.59
2023-03-27T09:14:47.972Z,8.58
2023-03-27T09:17:26.543Z,8.56
2023-03-27T09:20:10.566Z,8.55
2023-03-27T09:22:44.286Z,8.54
2023-03-27T09:25:29.003Z,8.55
2023-03-27T09:27:56.253Z,8.56
2023-03-27T09:30:27.066Z,8.58
2023-03-27T09:32:58.372Z,8.62
2023-03-27T09:35:25.302Z,8.66
2023-03-27T09:37:58.608Z,8.67
2023-03-27T09:40:33.862Z,8.65
2023-03-27T09:43:08.710Z,8.64
2023-03-27T09:45:40.688Z,8.66
2023-03-27T09:48:15.456Z,8.62
2023-03-27T09:50:46.179Z,8.62
2023-03-27T09:53:23.040Z,8.59
2023-03-27T09:55:58.822Z,8.54
2023-03-27T09:58:31.989Z,8.49
2023-03-27T10:01:17.018Z,8.48
2023-03-27T10:03:51.935Z,8.41
2023-03-27T10:06:30.665Z,8.41
2023-03-27T10:09:02.089Z,8.40
2023-03-27T10:11:33.011Z,8.40
2023-03-27T10:14:01.684Z,8.38
2023-03-27T10:16:29.845Z,8.38
2023-03-27T10:18:59.836Z,8.39
2023-03-27T10:21:28.300Z,8.41
2023-03-27T10:24:06.650Z,8.42
2023-03-27T10:26:37.063Z,8.42
2023-03-27T10:29:22.362Z,8.40
2023-03-27T10:31:52.639Z,8.38
2023-03-27T10:34:38.494Z,8.36
2023-03-27T10:37:27.321Z,8.36
2023-03-27T10:40:00.048Z,8.38
2023-03-27T10:42:31.311Z,8.41
2023-03-27T10:44:59.263Z,8.39
2023-03-27T10:47:30.914Z,8.42
2023-03-27T10:50:03.924Z,8.45
2023-03-27T10:52:38.905Z,8.47
2023-03-27T10:55:05.486Z,8.50
2023-03-27T10:57:38.179Z,8.52
2023-03-27T11:00:21.171Z,8.56
2023-03-27T11:02:57.548Z,8.59
2023-03-27T11:05:36.357Z,8.62
2023-03-27T11:08:05.654Z,8.62
2023-03-27T11:10:46.941Z,8.63
2023-03-27T11:13:31.203Z,8.62
2023-03-27T11:16:19.407Z,8.63
2023-03-27T11:18:54.147Z,8.60
2023-03-27T11:21:55.868Z,8.59
2023-03-27T11:24:34.976Z,8.61
2023-03-27T11:27:17.037Z,8.59
2023-03-27T11:29:58.839Z,8.59
2023-03-27T11:32:41.130Z,8.56
2023-03-27T11:35:15.903Z,8.56
2023-03-27T11:37:59.639Z,8.58
2023-03-27T11:40:35.272Z,8.62
2023-03-27T11:43:02.606Z,8.66
2023-03-27T11:45:41.088Z,8.66
2023-03-27T11:48:16.357Z,8.75
2023-03-27T11:51:10.648Z,8.81
2023-03-27T11:53:39.936Z,8.91
2023-03-27T11:56:15.500Z,8.96
2023-03-27T11:59:05.625Z,9.03
2023-03-27T12:01:37.469Z,9.04
2023-03-27T12:04:40.068Z,9.06
2023-03-27T12:07:35.860Z,9.05
2023-03-27T12:10:34.030Z,9.09
2023-03-27T12:13:18.883Z,9.10
2023-03-27T12:16:19.166Z,9.11
2023-03-27T12:19:03.822Z,9.08
2023-03-27T12:22:00.736Z,9.08
2023-03-27T12:24:57.038Z,9.06
2023-03-27T12:27:37.381Z,9.05
2023-03-27T12:30:24.729Z,9.08
2023-03-27T12:33:07.110Z,9.08
2023-03-27T12:35:41.531Z,9.06
2023-03-27T12:38:39.028Z,9.05
2023-03-27T12:41:05.860Z,9.07
2023-03-27T12:43:40.721Z,9.08
2023-03-27T12:46:13.819Z,9.05
2023-03-27T12:49:07.602Z,9.10
2023-03-27T12:51:51.838Z,9.10
2023-03-27T12:54:31.191Z,9.08
2023-03-27T12:57:08.266Z,9.06
2023-03-27T12:59:49.977Z,9.03
2023-03-27T13:02:31.608Z,8.89
2023-03-27T13:05:26.920Z,8.63
2023-03-27T13:08:14.375Z,8.45
2023-03-27T13:10:59.072Z,8.30
2023-03-27T13:13:44.832Z,8.19
2023-03-27T13:16:36.329Z,8.13
2023-03-27T13:19:14.863Z,8.04
2023-03-27T13:22:26.117Z,7.91
2023-03-27T13:25:01.833Z,7.83
2023-03-27T13:27:47.728Z,7.83
2023-03-27T13:30:42.818Z,7.76
2023-03-27T13:33:30.022Z,7.75
2023-03-27T13:36:20.612Z,7.65
2023-03-27T13:38:56.629Z,7.57
2023-03-27T13:41:44.681Z,7.47
2023-03-27T13:44:43.583Z,7.39
2023-03-27T13:47:35.012Z,7.35
2023-03-27T13:50:29.826Z,7.27
2023-03-27T13:53:15.418Z,7.21
2023-03-27T13:56:15.263Z,7.03
2023-03-27T13:59:05.440Z,6.92
2023-03-27T14:01:54.000Z,6.82
2023-03-27T14:04:52.499Z,6.77
2023-03-27T14:07:43.914Z,6.68
2023-03-27T14:10:31.369Z,6.62
2023-03-27T14:13:18.116Z,6.52
2023-03-27T14:16:08.765Z,6.36
2023-03-27T14:19:12.321Z,6.23
2023-03-27T14:22:23.546Z,6.20
2023-03-27T14:24:58.695Z,6.17
2023-03-27T14:27:26.431Z,6.11
2023-03-27T14:30:17.011Z,6.02
2023-03-27T14:32:44.443Z,5.97
2023-03-27T14:35:36.073Z,5.91
2023-03-27T14:38:16.800Z,5.83
2023-03-27T14:40:47.581Z,5.71
2023-03-27T14:43:17.808Z,5.62
2023-03-27T14:45:45.103Z,5.58
2023-03-27T14:48:37.157Z,5.49
2023-03-27T14:51:09.490Z,5.49
2023-03-27T14:53:44.435Z,5.51
2023-03-27T14:56:26.391Z,5.55
2023-03-27T14:58:56.606Z,5.53
2023-03-27T15:01:23.305Z,5.53
2023-03-27T15:03:53.020Z,5.53
2023-03-27T15:06:23.302Z,5.48
2023-03-27T15:08:59.934Z,5.45
2023-03-27T15:11:37.316Z,5.36
2023-03-27T15:14:05.037Z,5.32
2023-03-27T15:16:35.834Z,5.26
2023-03-27T15:19:05.075Z,5.24
2023-03-27T15:21:47.199Z,5.10
2023-03-27T15:24:52.584Z,4.98
2023-03-27T15:27:25.644Z,4.90
2023-03-27T15:30:01.251Z,4.78
2023-03-27T15:32:42.331Z,4.75
2023-03-27T15:35:15.753Z,4.71
2023-03-27T15:37:42.865Z,4.68
2023-03-27T15:40:10.970Z,4.61
2023-03-27T15:42:52.916Z,4.52
2023-03-27T15:45:34.311Z,4.45
2023-03-27T15:48:05.604Z,4.41
2023-03-27T15:50:33.999Z,4.41
2023-03-27T15:53:02.292Z,4.40
2023-03-27T15:55:47.734Z,4.34
2023-03-27T15:58:26.692Z,4.31
2023-03-27T16:00:59.551Z,4.23
2023-03-27T16:03:27.637Z,4.23
2023-03-27T16:05:58.197Z,4.14
2023-03-27T16:08:34.014Z,4.15
2023-03-27T16:11:01.604Z,4.16
2023-03-27T16:13:37.250Z,4.14
2023-03-27T16:16:21.395Z,4.12
2023-03-27T16:18:49.312Z,4.12
2023-03-27T16:21:16.100Z,4.12
2023-03-27T16:23:43.983Z,4.10
2023-03-27T16:26:16.021Z,4.08
2023-03-27T16:28:42.956Z,4.11
2023-03-27T16:31:18.328Z,4.11
2023-03-27T16:33:46.299Z,4.09
2023-03-27T16:36:16.069Z,4.14
2023-03-27T16:38:43.853Z,4.12
2023-03-27T16:41:15.280Z,4.10
2023-03-27T16:43:43.077Z,4.07
2023-03-27T16:46:23.284Z,4.07
2023-03-27T16:48:51.362Z,4.09
2023-03-27T16:51:19.377Z,4.07
2023-03-27T16:53:46.113Z,4.07
2023-03-27T16:56:12.891Z,4.08
2023-03-27T16:58:40.301Z,4.05
2023-03-27T17:01:08.789Z,4.05
2023-03-27T17:03:37.170Z,4.06
2023-03-27T17:06:06.637Z,4.05
2023-03-27T17:08:33.545Z,4.08
2023-03-27T17:11:06.652Z,4.06
2023-03-27T17:13:33.604Z,4.07
2023-03-27T17:16:00.449Z,4.06
2023-03-27T17:18:27.207Z,4.06
2023-03-27T17:20:53.997Z,4.06
2023-03-27T17:23:20.840Z,4.07
2023-03-27T17:25:48.412Z,4.03
2023-03-27T17:28:15.317Z,4.02
2023-03-27T17:30:56.368Z,4.01
2023-03-27T17:33:28.608Z,3.98
2023-03-27T17:35:57.240Z,3.96
2023-03-27T17:38:24.370Z,3.89
2023-03-27T17:40:51.741Z,3.86
2023-03-27T17:43:18.489Z,3.83
2023-03-27T17:45:45.488Z,3.81
2023-03-27T17:48:12.096Z,3.73
2023-03-27T17:50:39.626Z,3.69
2023-03-27T17:53:06.994Z,3.70
2023-03-27T17:55:36.858Z,3.65
2023-03-27T17:58:09.272Z,3.58
2023-03-27T18:00:37.853Z,3.55
2023-03-27T18:03:04.980Z,3.48
2023-03-27T18:05:36.590Z,3.46
2023-03-27T18:08:03.636Z,3.44
2023-03-27T18:10:30.277Z,3.39
2023-03-27T18:12:59.086Z,3.35
2023-03-27T18:15:25.625Z,3.33
2023-03-27T18:17:52.816Z,3.28
2023-03-27T18:20:19.463Z,3.26
2023-03-27T18:22:46.075Z,3.25
2023-03-27T18:25:12.712Z,3.23
2023-03-27T18:27:43.395Z,3.25
2023-03-27T18:30:13.373Z,3.21
2023-03-27T18:32:42.619Z,3.20
2023-03-27T18:35:14.011Z,3.18
2023-03-27T18:37:42.545Z,3.15
2023-03-27T18:40:11.777Z,3.17
2023-03-27T18:42:40.440Z,3.13
2023-03-27T18:45:08.538Z,3.11
2023-03-27T18:47:36.304Z,3.12
2023-03-27T18:50:05.102Z,3.18
2023-03-27T18:52:32.052Z,3.15
2023-03-27T18:54:58.786Z,3.17
2023-03-27T18:57:25.632Z,3.08
2023-03-27T18:59:52.487Z,3.07
2023-03-27T19:02:19.168Z,3.06
2023-03-27T19:04:47.895Z,3.02
2023-03-27T19:07:16.384Z,2.95
2023-03-27T19:09:43.537Z,2.97
2023-03-27T19:12:11.051Z,2.94
2023-03-27T19:14:37.748Z,2.95
2023-03-27T19:17:05.295Z,2.95
2023-03-27T19:19:33.655Z,2.91
2023-03-27T19:22:00.408Z,2.91
2023-03-27T19:24:27.198Z,2.90
2023-03-27T19:26:53.801Z,2.90
2023-03-27T19:29:20.417Z,2.88
2023-03-27T19:31:47.026Z,2.86
2023-03-27T19:34:13.764Z,2.81
2023-03-27T19:36:40.525Z,2.84
2023-03-27T19:39:07.181Z,2.88
2023-03-27T19:41:33.740Z,2.84
2023-03-27T19:44:00.663Z,2.89
2023-03-27T19:46:28.467Z,2.84
2023-03-27T19:48:55.865Z,2.80
2023-03-27T19:51:22.905Z,2.85
2023-03-27T19:53:50.044Z,2.92
2023-03-27T19:56:16.992Z,2.94
2023-03-27T19:58:43.613Z,2.95
2023-03-27T20:01:10.275Z,2.92
2023-03-27T20:03:38.474Z,2.85
2023-03-27T20:06:12.895Z,2.83
2023-03-27T20:08:41.002Z,2.78
2023-03-27T20:11:07.753Z,2.72
2023-03-27T20:13:42.386Z,2.72
2023-03-27T20:16:15.090Z,2.76
2023-03-27T20:18:42.771Z,2.75
2023-03-27T20:21:13.478Z,2.73
2023-03-27T20:23:42.056Z,2.72
2023-03-27T20:26:09.315Z,2.69
2023-03-27T20:28:36.297Z,2.70
2023-03-27T20:31:05.360Z,2.66
2023-03-27T20:33:32.193Z,2.62
2023-03-27T20:35:59.072Z,2.57
2023-03-27T20:38:29.646Z,2.54
2023-03-27T20:40:56.403Z,2.54
2023-03-27T20:43:23.164Z,2.61
2023-03-27T20:45:54.984Z,2.59
2023-03-27T20:48:22.225Z,2.54
2023-03-27T20:50:55.352Z,2.62
2023-03-27T20:53:26.284Z,2.62
2023-03-27T20:56:00.679Z,2.58
2023-03-27T20:58:28.209Z,2.55
2023-03-27T21:00:56.787Z,2.51
2023-03-27T21:03:23.434Z,2.44
2023-03-27T21:05:50.687Z,2.42
2023-03-27T21:08:17.274Z,2.47
2023-03-27T21:10:53.125Z,2.48
2023-03-27T21:13:20.241Z,2.50
2023-03-27T21:15:46.971Z,2.44
2023-03-27T21:18:13.576Z,2.45
2023-03-27T21:20:40.216Z,2.43
2023-03-27T21:23:06.772Z,2.42
2023-03-27T21:25:34.922Z,2.50
2023-03-27T21:28:01.627Z,2.52
2023-03-27T21:30:46.698Z,2.51
2023-03-27T21:33:16.206Z,2.45
2023-03-27T21:35:45.749Z,2.48
2023-03-27T21:38:13.833Z,2.47
2023-03-27T21:40:41.006Z,2.40
2023-03-27T21:43:08.936Z,2.43
2023-03-27T21:45:36.424Z,2.39
2023-03-27T21:48:03.507Z,2.32
2023-03-27T21:50:30.389Z,2.37
2023-03-27T21:52:57.418Z,2.32
2023-03-27T21:55:24.033Z,2.28
2023-03-27T21:57:51.919Z,2.26
2023-03-27T22:00:19.876Z,2.31
2023-03-27T22:02:46.508Z,2.30
2023-03-27T22:05:13.312Z,2.28
2023-03-27T22:07:39.990Z,2.30
2023-03-27T22:10:07.046Z,2.35
2023-03-27T22:12:37.703Z,2.32
2023-03-27T22:15:06.326Z,2.28
2023-03-27T22:17:34.869Z,2.24
2023-03-27T22:20:01.495Z,2.22
2023-03-27T22:22:28.051Z,2.19
2023-03-27T22:24:54.612Z,2.15
2023-03-27T22:27:21.176Z,2.19
2023-03-27T22:29:47.751Z,2.22
2023-03-27T22:32:14.373Z,2.22
2023-03-27T22:34:40.922Z,2.20
2023-03-27T22:37:07.586Z,2.19
2023-03-27T22:39:34.144Z,2.18
2023-03-27T22:42:00.928Z,2.13
2023-03-27T22:44:31.098Z,2.13
2023-03-27T22:46:58.897Z,2.11
2023-03-27T22:49:26.085Z,2.07
2023-03-27T22:51:52.726Z,2.11
2023-03-27T22:54:19.429Z,2.06
2023-03-27T22:56:47.089Z,2.02
2023-03-27T22:59:14.895Z,1.99
2023-03-27T23:01:41.553Z,2.02
2023-03-27T23:04:09.153Z,1.98
2023-03-27T23:06:35.760Z,1.96
2023-03-27T23:09:02.338Z,1.95
2023-03-27T23:11:28.929Z,1.91
2023-03-27T23:13:55.583Z,2.02
2023-03-27T23:16:22.232Z,1.96
2023-03-27T23:18:48.790Z,1.94
2023-03-27T23:21:18.276Z,1.88
2023-03-27T23:23:45.383Z,1.88
2023-03-27T23:26:12.879Z,1.90
2023-03-27T23:28:41.897Z,1.81
2023-03-27T23:31:12.893Z,1.78
2023-03-27T23:33:44.273Z,1.72
2023-03-27T23:36:13.888Z,1.67
2023-03-27T23:38:42.056Z,1.66
2023-03-27T23:41:10.892Z,1.64
2023-03-27T23:43:37.821Z,1.62
2023-03-27T23:46:08.609Z,1.64
2023-03-27T23:48:35.429Z,1.64
2023-03-27T23:51:02.669Z,1.64
2023-03-27T23:53:30.536Z,1.62
2023-03-27T23:55:58.996Z,1.61
2023-03-27T23:58:28.852Z,1.58
